Time;durP1;ratioP1;P1;durP2;ratioP2;P2;SDS_P1;SDS_P2;PMS_P1;PMS_P2;Temp;Humidity;BMP_temperature;BMP_pressure;BME280_temperature;BME280_humidity;BME280_pressure;Samples;Min_cycle;Max_cycle;Signal;HPM_P1;HPM_P2
2022/11/22 00:00:41;;;;;;;13.85;4.00;;;;;;;11.32;100.00;99361.02;1678059;85;21036;-79
2022/11/22 00:03:08;;;;;;;9.70;3.22;;;;;;;11.28;100.00;99359.22;1707960;82;21058;-79
2022/11/22 00:05:35;;;;;;;11.57;3.67;;;;;;;11.25;100.00;99356.88;1732984;83;20993;-79
2022/11/22 00:08:03;;;;;;;7.53;3.30;;;;;;;11.26;100.00;99359.93;1733112;83;21009;-78
2022/11/22 00:10:29;;;;;;;11.88;4.03;;;;;;;11.26;100.00;99350.95;1702360;83;21098;-79
2022/11/22 00:12:56;;;;;;;12.13;3.50;;;;;;;11.24;100.00;99357.08;1732976;81;21060;-78
2022/11/22 00:15:25;;;;;;;8.10;3.80;;;;;;;11.22;100.00;99357.27;1702605;84;21101;-78
2022/11/22 00:17:53;;;;;;;11.57;3.17;;;;;;;11.20;100.00;99369.63;1733116;82;21510;-79
2022/11/22 00:20:22;;;;;;;10.28;3.90;;;;;;;11.19;100.00;99374.73;1702625;84;21006;-78
2022/11/22 00:22:50;;;;;;;13.10;3.83;;;;;;;11.19;100.00;99376.09;1733399;82;21036;-78
2022/11/22 00:25:19;;;;;;;18.07;3.90;;;;;;;11.19;100.00;99373.38;1702469;84;21050;-78
2022/11/22 00:27:46;;;;;;;14.23;3.60;;;;;;;11.19;100.00;99378.80;1733308;83;20990;-78
2022/11/22 00:30:14;;;;;;;10.30;3.65;;;;;;;11.18;100.00;99370.86;1702433;84;21074;-79
2022/11/22 00:32:42;;;;;;;10.08;3.67;;;;;;;11.16;100.00;99363.45;1733110;83;21021;-78
2022/11/22 00:35:10;;;;;;;13.32;3.35;;;;;;;11.14;100.00;99360.11;1702426;84;21539;-79
2022/11/22 00:37:37;;;;;;;13.70;3.80;;;;;;;11.12;100.00;99356.23;1733247;83;21102;-78
2022/11/22 00:40:07;;;;;;;8.98;3.52;;;;;;;11.13;100.00;99359.77;1702348;84;21050;-79
2022/11/22 00:42:34;;;;;;;14.55;3.70;;;;;;;11.13;100.00;99370.59;1733251;83;21545;-78
2022/11/22 00:45:00;;;;;;;11.68;3.67;;;;;;;11.11;100.00;99365.37;1702567;84;21086;-77
2022/11/22 00:47:27;;;;;;;8.75;3.40;;;;;;;11.11;100.00;99372.66;1733537;82;21054;-78
2022/11/22 00:49:55;;;;;;;11.88;3.30;;;;;;;11.11;100.00;99369.42;1702270;83;21054;-79
2022/11/22 00:52:22;;;;;;;9.65;3.70;;;;;;;11.13;100.00;99374.66;1733260;83;21530;-79
2022/11/22 00:54:49;;;;;;;15.48;3.65;;;;;;;11.12;100.00;99360.30;1702433;84;21046;-79
2022/11/22 00:57:16;;;;;;;10.05;3.33;;;;;;;11.12;100.00;99367.06;1733099;83;21045;-77
2022/11/22 00:59:43;;;;;;;11.53;3.60;;;;;;;11.13;100.00;99371.95;1702818;84;21109;-78
2022/11/22 01:02:10;;;;;;;17.12;4.10;;;;;;;11.10;100.00;99378.59;1732948;83;21037;-78
2022/11/22 01:04:38;;;;;;;15.75;3.98;;;;;;;11.10;100.00;99384.00;1702546;83;21089;-78
2022/11/22 01:07:05;;;;;;;8.18;3.05;;;;;;;11.09;100.00;99385.02;1733485;83;21060;-80
2022/11/22 01:09:32;;;;;;;11.10;4.00;;;;;;;11.11;100.00;99382.13;1702447;84;21014;-78
2022/11/22 01:11:59;;;;;;;11.43;3.45;;;;;;;11.10;100.00;99381.79;1733285;81;21069;-78
2022/11/22 01:14:26;;;;;;;8.80;3.45;;;;;;;11.09;100.00;99380.12;1736072;83;21048;-79
2022/11/22 01:16:54;;;;;;;11.57;3.67;;;;;;;11.09;100.00;99382.31;1736046;81;21053;-78
2022/11/22 01:19:21;;;;;;;13.08;3.45;;;;;;;11.09;100.00;99383.66;1736027;82;21092;-79
2022/11/22 01:21:49;;;;;;;13.08;3.85;;;;;;;11.10;100.00;99387.20;1736245;83;21503;-78
2022/11/22 01:24:16;;;;;;;12.33;3.42;;;;;;;11.10;100.00;99392.13;1736281;83;21013;-79
2022/11/22 01:26:45;;;;;;;12.03;3.67;;;;;;;11.10;100.00;99396.67;1735988;81;21049;-78
2022/11/22 01:29:12;;;;;;;15.43;3.52;;;;;;;11.10;100.00;99392.61;1735928;82;21044;-79
2022/11/22 01:31:40;;;;;;;9.25;3.15;;;;;;;11.09;100.00;99389.08;1736028;83;21017;-78
2022/11/22 01:34:07;;;;;;;11.22;3.42;;;;;;;11.10;100.00;99385.84;1735995;82;21499;-80
2022/11/22 01:36:35;;;;;;;7.70;2.98;;;;;;;11.10;100.00;99402.08;1736228;82;21037;-79
2022/11/22 01:39:02;;;;;;;12.47;3.80;;;;;;;11.09;100.00;99405.83;1735840;82;21024;-79
2022/11/22 01:41:31;;;;;;;12.43;3.58;;;;;;;11.08;100.00;99408.20;1736030;83;21080;-79
2022/11/22 01:44:20;;;;;;;13.58;3.02;;;;;;;11.08;100.00;99413.61;1736177;83;21033;-78
2022/11/22 01:46:53;;;;;;;13.38;3.65;;;;;;;11.07;100.00;99402.48;1735945;83;21021;-78
2022/11/22 01:49:37;;;;;;;16.95;3.98;;;;;;;11.06;100.00;99394.03;1736195;83;21005;-77
2022/11/22 01:52:12;;;;;;;10.28;3.37;;;;;;;11.05;100.00;99402.67;1736096;83;21052;-80
2022/11/22 01:54:41;;;;;;;15.80;3.67;;;;;;;11.05;100.00;99390.98;1736079;82;21033;-79
2022/11/22 01:57:13;;;;;;;12.30;3.27;;;;;;;11.04;100.00;99382.56;1736013;83;20997;-81
2022/11/22 01:59:43;;;;;;;16.23;3.30;;;;;;;11.05;100.00;99389.14;1736273;83;21065;-78
2022/11/22 02:02:10;;;;;;;12.13;3.00;;;;;;;11.06;100.00;99387.27;1736435;83;20997;-79
2022/11/22 02:04:37;;;;;;;11.45;3.40;;;;;;;11.07;100.00;99386.25;1736237;82;21534;-79
2022/11/22 02:07:11;;;;;;;14.20;3.70;;;;;;;11.08;100.00;99402.79;1736030;82;21065;-78
2022/11/22 02:09:38;;;;;;;19.23;3.40;;;;;;;11.09;100.00;99407.19;1736564;83;20997;-77
2022/11/22 02:12:05;;;;;;;14.13;3.58;;;;;;;11.09;100.00;99408.02;1735999;82;21029;-79
2022/11/22 07:05:59;;;;;;;7.23;4.50;;;;;;;2.72;100.00;99645.75;1716827;83;21035;-79
2022/11/22 07:08:25;;;;;;;9.07;5.20;;;;;;;2.72;100.00;99634.23;1728184;81;21068;-72
2022/11/22 07:10:54;;;;;;;7.30;4.57;;;;;;;2.70;100.00;99640.20;1745696;81;21102;-76
2022/11/22 07:13:21;;;;;;;7.17;4.40;;;;;;;2.72;100.00;99624.39;1716505;82;21069;-76
2022/11/22 07:15:59;;;;;;;7.53;5.00;;;;;;;2.69;100.00;99632.66;1707788;82;21053;-76
2022/11/22 07:18:26;;;;;;;7.07;4.40;;;;;;;2.68;100.00;99630.15;1697506;83;21068;-78
2022/11/22 07:20:55;;;;;;;6.73;4.37;;;;;;;2.70;100.00;99638.87;1730473;82;21496;-77
2022/11/22 07:23:22;;;;;;;5.43;4.00;;;;;;;2.72;100.00;99632.91;1735068;81;21031;-76
2022/11/22 07:25:50;;;;;;;8.90;5.00;;;;;;;2.79;100.00;99624.23;1722363;83;21000;-75
2022/11/22 07:28:17;;;;;;;12.90;5.73;;;;;;;2.80;100.00;99633.11;1709034;83;21074;-77
2022/11/22 07:30:44;;;;;;;7.80;4.60;;;;;;;2.84;100.00;99633.19;1721137;83;21003;-76
2022/11/22 07:33:12;;;;;;;15.63;6.63;;;;;;;2.87;100.00;99629.40;1759312;81;21030;-76
2022/11/22 07:35:39;;;;;;;13.70;6.97;;;;;;;2.91;100.00;99627.68;1752975;81;20997;-82
2022/11/22 07:38:06;;;;;;;10.37;5.77;;;;;;;2.98;100.00;99624.84;1749320;81;21017;-77
2022/11/22 07:40:34;;;;;;;5.70;3.93;;;;;;;2.98;100.00;99619.99;1754096;81;21065;-73
2022/11/22 07:43:02;;;;;;;7.37;4.40;;;;;;;3.00;100.00;99624.20;1753837;81;21030;-73
2022/11/22 07:45:30;;;;;;;5.90;4.17;;;;;;;2.96;100.00;99629.47;1726050;81;21052;-73
2022/11/22 07:47:59;;;;;;;6.20;3.73;;;;;;;2.90;100.00;99624.64;1734568;81;21279;-76
2022/11/22 07:50:26;;;;;;;4.60;3.70;;;;;;;2.91;100.00;99618.83;1739229;81;21039;-77
2022/11/22 07:52:58;;;;;;;4.83;3.67;;;;;;;2.93;100.00;99614.20;1750961;81;21096;-77
2022/11/22 07:55:26;;;;;;;3.87;3.00;;;;;;;2.94;100.00;99614.53;1673472;84;21543;-76
2022/11/22 07:57:53;;;;;;;3.50;3.03;;;;;;;2.91;100.00;99600.97;1663667;84;21062;-76
2022/11/22 08:00:20;;;;;;;4.87;3.30;;;;;;;2.88;100.00;99601.73;1664347;85;21100;-74
2022/11/22 08:02:48;;;;;;;4.53;3.73;;;;;;;2.82;100.00;99593.27;1662133;85;21072;-76
2022/11/22 08:05:16;;;;;;;4.53;3.33;;;;;;;2.83;100.00;99596.30;1669201;85;21548;-75
2022/11/22 08:07:50;;;;;;;10.63;5.07;;;;;;;2.89;100.00;99592.25;1661097;86;21510;-75
2022/11/22 08:10:17;;;;;;;6.43;4.00;;;;;;;2.97;100.00;99590.23;1666769;85;21065;-75
2022/11/22 08:12:44;;;;;;;6.57;4.40;;;;;;;3.01;100.00;99589.85;1664720;85;21037;-76
2022/11/22 08:15:13;;;;;;;8.27;4.17;;;;;;;3.00;100.00;99591.31;1663685;85;21056;-74
2022/11/22 08:17:42;;;;;;;5.17;3.70;;;;;;;3.00;100.00;99595.33;1669510;85;21620;-76
2022/11/22 08:20:10;;;;;;;6.67;4.23;;;;;;;2.99;100.00;99618.52;1663907;84;21063;-74
2022/11/22 08:22:39;;;;;;;4.90;3.40;;;;;;;2.97;100.00;99619.13;1665259;85;21062;-73
2022/11/22 08:25:11;;;;;;;12.30;5.53;;;;;;;2.97;100.00;99612.94;1644500;85;21596;-75
2022/11/22 08:27:40;;;;;;;9.80;4.57;;;;;;;3.01;100.00;99614.36;1663580;85;21028;-78
2022/11/22 08:30:09;;;;;;;15.53;6.33;;;;;;;3.05;100.00;99601.12;1646842;85;21066;-78
2022/11/22 08:32:38;;;;;;;14.90;7.33;;;;;;;3.09;100.00;99603.03;1625723;86;21520;-77
2022/11/22 08:35:06;;;;;;;8.27;4.50;;;;;;;3.15;100.00;99602.48;1640268;84;21046;-78
2022/11/22 08:37:34;;;;;;;6.30;4.40;;;;;;;3.19;100.00;99587.89;1632636;85;22577;-75
2022/11/22 08:40:03;;;;;;;9.83;4.73;;;;;;;3.21;100.00;99588.59;1635344;86;21166;-74
2022/11/22 08:42:31;;;;;;;7.27;4.47;;;;;;;3.20;100.00;99589.56;1638984;87;21062;-76
2022/11/22 08:44:59;;;;;;;9.63;5.37;;;;;;;3.18;100.00;99594.20;1634109;86;21053;-76
2022/11/22 08:47:26;;;;;;;14.37;6.03;;;;;;;3.16;100.00;99582.31;1664343;84;21107;-75
2022/11/22 08:49:53;;;;;;;11.03;5.47;;;;;;;3.18;100.00;99581.68;1623398;86;21086;-76
2022/11/22 08:52:20;;;;;;;29.33;13.63;;;;;;;3.22;100.00;99572.44;1638179;85;21078;-76
2022/11/22 08:54:49;;;;;;;8.37;5.07;;;;;;;3.27;100.00;99568.50;1699708;83;21052;-74
2022/11/22 08:57:17;;;;;;;7.90;4.70;;;;;;;3.30;100.00;99561.05;1665170;84;21119;-74
2022/11/22 08:59:46;;;;;;;8.23;5.20;;;;;;;3.27;100.00;99550.63;1672389;84;21053;-73
2022/11/22 09:02:13;;;;;;;9.37;5.20;;;;;;;3.25;100.00;99548.59;1663322;84;21546;-74
2022/11/22 09:04:42;;;;;;;8.97;5.47;;;;;;;3.25;100.00;99545.08;1680460;83;21061;-76
2022/11/22 09:07:09;;;;;;;9.07;5.40;;;;;;;3.27;100.00;99538.61;1648956;84;21017;-75
2022/11/22 09:09:36;;;;;;;21.47;9.37;;;;;;;3.23;100.00;99538.53;1694587;83;21124;-79
2022/11/22 09:12:06;;;;;;;15.80;8.03;;;;;;;3.21;100.00;99537.33;1703676;83;21103;-77
2022/11/22 09:14:34;;;;;;;22.30;8.40;;;;;;;3.25;100.00;99560.62;1701794;83;21048;-79
2022/11/22 09:17:01;;;;;;;14.33;6.60;;;;;;;3.30;100.00;99561.55;1702321;83;21060;-77
2022/11/22 09:19:28;;;;;;;13.33;7.00;;;;;;;3.29;100.00;99559.35;1699389;83;21005;-75
2022/11/22 09:21:55;;;;;;;16.60;7.63;;;;;;;3.28;100.00;99552.84;1676026;84;21114;-77
2022/11/22 09:24:22;;;;;;;15.53;7.83;;;;;;;3.25;100.00;99561.12;1676159;84;21117;-75
2022/11/22 09:26:49;;;;;;;21.90;10.67;;;;;;;3.23;100.00;99563.42;1702015;82;21043;-76
2022/11/22 09:29:17;;;;;;;19.90;9.03;;;;;;;3.18;100.00;99557.63;1730094;82;21039;-76
2022/11/22 09:31:44;;;;;;;36.40;14.77;;;;;;;3.19;100.00;99561.17;1739826;81;21026;-75
2022/11/22 09:34:11;;;;;;;23.83;11.03;;;;;;;3.21;100.00;99553.86;1733579;81;21005;-74
2022/11/22 09:36:39;;;;;;;20.97;9.90;;;;;;;3.21;100.00;99553.86;1745988;81;21003;-73
2022/11/22 09:39:10;;;;;;;16.43;8.07;;;;;;;3.23;100.00;99554.06;1736991;82;21021;-73
2022/11/22 09:42:09;;;;;;;16.73;7.83;;;;;;;3.26;100.00;99546.75;1729135;82;21020;-77
2022/11/22 09:45:07;;;;;;;13.30;7.00;;;;;;;3.26;100.00;99532.92;1723637;81;21027;-75
2022/11/22 09:47:57;;;;;;;15.17;7.10;;;;;;;3.20;100.00;99514.25;1736298;82;21477;-75
2022/11/22 09:50:36;;;;;;;15.47;8.20;;;;;;;3.15;100.00;99518.32;1730621;81;21189;-76
2022/11/22 09:53:24;;;;;;;15.40;7.70;;;;;;;3.12;100.00;99515.95;1756606;80;21586;-74
2022/11/22 09:55:53;;;;;;;16.23;7.63;;;;;;;3.14;100.00;99507.30;1775435;80;21010;-72
2022/11/22 09:58:30;;;;;;;15.33;8.53;;;;;;;3.09;100.00;99498.84;1764335;80;21472;-77
2022/11/22 10:01:22;;;;;;;16.33;8.37;;;;;;;3.07;100.00;99502.15;1772257;80;21526;-75
2022/11/22 10:04:06;;;;;;;18.43;8.80;;;;;;;3.05;100.00;99510.30;1658323;86;21055;-76
2022/11/22 10:06:39;;;;;;;16.95;8.60;;;;;;;3.08;100.00;99519.84;1660207;85;21052;-80
2022/11/22 10:09:48;;;;;;;16.77;8.73;;;;;;;3.14;100.00;99508.64;1659737;86;21195;-79
2022/11/22 10:12:30;;;;;;;23.47;9.70;;;;;;;3.19;100.00;99505.06;1662877;85;21051;-78
2022/11/22 10:15:25;;;;;;;22.02;11.33;;;;;;;3.18;100.00;99496.69;1656474;86;21129;-77
2022/11/22 10:18:20;;;;;;;23.27;12.33;;;;;;;3.10;100.00;99508.06;1659000;86;21030;-78
2022/11/22 10:20:48;;;;;;;23.70;12.53;;;;;;;3.04;100.00;99507.25;1658757;86;21675;-77
2022/11/22 10:23:19;;;;;;;22.20;11.07;;;;;;;2.93;100.00;99509.54;1659828;85;21003;-76
2022/11/22 10:25:59;;;;;;;24.60;12.50;;;;;;;2.86;100.00;99511.06;1610384;88;21113;-77
2022/11/22 10:28:35;;;;;;;21.70;11.03;;;;;;;2.81;100.00;99507.45;1602163;88;21089;-76
2022/11/22 10:31:19;;;;;;;24.60;11.23;;;;;;;2.78;100.00;99503.73;1606081;88;21053;-75
2022/11/22 10:34:18;;;;;;;24.53;11.00;;;;;;;2.79;100.00;99508.58;1598769;88;21068;-77
2022/11/22 10:37:08;;;;;;;24.57;10.50;;;;;;;2.82;100.00;99509.16;1552807;90;21077;-78
2022/11/22 10:39:52;;;;;;;22.27;10.70;;;;;;;2.85;100.00;99514.23;1608353;88;21078;-75
2022/11/22 10:59:35;;;;;;;28.10;13.17;;;;;;;3.11;100.00;99719.95;1836087;77;22898;-75
2022/11/22 11:02:47;;;;;;;25.77;12.50;;;;;;;3.09;100.00;99527.73;1781455;80;21508;-75
2022/11/22 11:05:16;;;;;;;33.93;14.60;;;;;;;3.03;100.00;99510.42;1778287;80;20987;-76
2022/11/22 11:07:47;;;;;;;28.40;12.47;;;;;;;3.02;100.00;99521.24;1786336;80;21112;-74
2022/11/22 11:10:21;;;;;;;23.98;10.38;;;;;;;2.97;100.00;99528.81;1778342;80;21066;-78
2022/11/22 11:12:58;;;;;;;20.90;10.15;;;;;;;2.92;100.00;99531.91;1793045;80;21070;-79
2022/11/22 11:15:53;;;;;;;23.37;10.87;;;;;;;2.83;100.00;99518.86;1794852;79;21556;-80
2022/11/22 11:18:59;;;;;;;23.70;11.67;;;;;;;2.79;100.00;99502.73;1796173;79;20978;-79
2022/11/22 11:21:26;;;;;;;21.63;10.20;;;;;;;2.77;100.00;99503.86;1737949;82;21029;-78
2022/11/22 11:23:53;;;;;;;20.17;9.87;;;;;;;2.74;100.00;99508.97;1740115;82;21629;-78
2022/11/22 11:26:29;;;;;;;23.20;12.00;;;;;;;2.70;100.00;99506.22;1728641;82;21552;-75
2022/11/22 11:29:24;;;;;;;32.03;15.93;;;;;;;2.68;100.00;99512.19;1738515;82;21036;-73
2022/11/22 11:32:09;;;;;;;24.83;12.83;;;;;;;2.63;100.00;99513.91;1738521;82;21057;-74
2022/11/22 11:34:42;;;;;;;25.37;12.10;;;;;;;2.61;100.00;99509.69;1667974;86;21121;-75
2022/11/22 11:37:20;;;;;;;50.70;20.70;;;;;;;2.60;100.00;99506.19;1620718;88;21115;-70
2022/11/22 11:39:48;;;;;;;84.30;31.10;;;;;;;2.59;100.00;99521.83;1590939;90;21116;-71
2022/11/22 11:42:29;;;;;;;30.30;14.53;;;;;;;2.54;100.00;99525.88;1593062;90;21018;-71
2022/11/22 11:45:27;;;;;;;22.43;11.23;;;;;;;2.46;100.00;99520.72;1593101;90;21089;-72
2022/11/22 11:47:55;;;;;;;24.40;11.20;;;;;;;2.43;100.00;99512.97;1551211;92;21125;-72
2022/11/22 11:50:26;;;;;;;19.37;9.10;;;;;;;2.47;100.00;99513.05;1551207;92;21673;-71
2022/11/22 11:53:05;;;;;;;22.70;9.50;;;;;;;2.48;100.00;99507.25;1550830;92;21572;-71
2022/11/22 11:55:33;;;;;;;27.47;12.40;;;;;;;2.47;100.00;99509.05;1538173;93;21120;-72
2022/11/22 11:58:03;;;;;;;35.80;14.27;;;;;;;2.47;100.00;99509.55;1547356;91;21598;-72
2022/11/22 12:00:38;;;;;;;30.70;15.23;;;;;;;2.48;100.00;99511.25;1498016;96;21603;-70
2022/11/22 12:03:06;;;;;;;24.63;13.03;;;;;;;2.49;100.00;99502.75;1498290;96;21078;-72
2022/11/22 12:05:34;;;;;;;26.13;10.67;;;;;;;2.47;100.00;99504.21;1497955;96;21159;-69
2022/11/22 12:08:01;;;;;;;21.67;11.23;;;;;;;2.46;100.00;99507.38;1492540;96;21093;-70
2022/11/22 12:10:51;;;;;;;33.93;19.03;;;;;;;2.45;100.00;99515.52;1465891;96;21077;-69
2022/11/22 12:13:32;;;;;;;20.67;10.80;;;;;;;2.45;100.00;99520.84;1468402;98;21570;-71
2022/11/22 12:16:20;;;;;;;18.63;8.50;;;;;;;2.45;100.00;99527.52;1469153;94;21127;-71
2022/11/22 12:19:07;;;;;;;20.00;10.63;;;;;;;2.46;100.00;99531.39;1493483;96;21566;-73
2022/11/22 12:21:55;;;;;;;20.00;10.43;;;;;;;2.43;100.00;99523.64;1493667;96;21157;-73
2022/11/22 12:24:44;;;;;;;20.93;10.33;;;;;;;2.39;100.00;99527.56;1502124;94;21131;-74
2022/11/22 12:27:12;;;;;;;18.80;9.60;;;;;;;2.34;100.00;99536.91;1505512;94;21053;-72
2022/11/22 12:29:41;;;;;;;16.43;8.43;;;;;;;2.29;100.00;99539.98;1516024;94;21676;-72
2022/11/22 12:32:28;;;;;;;13.83;7.30;;;;;;;2.25;100.00;99543.41;1487204;96;21095;-73
2022/11/22 12:35:19;;;;;;;16.73;7.00;;;;;;;2.26;100.00;99546.91;1564374;91;21099;-73
2022/11/22 12:38:02;;;;;;;15.30;7.10;;;;;;;2.26;100.00;99537.08;1614743;88;21085;-72
2022/11/22 12:40:40;;;;;;;9.90;5.27;;;;;;;2.26;100.00;99530.41;1541125;92;21089;-72
2022/11/22 12:43:23;;;;;;;13.97;5.80;;;;;;;2.29;100.00;99533.31;1538188;93;21117;-72
2022/11/22 12:46:05;;;;;;;12.13;5.60;;;;;;;2.26;100.00;99534.91;1538662;93;21068;-72
2022/11/22 12:48:43;;;;;;;11.07;5.50;;;;;;;2.24;100.00;99536.37;1532946;93;21112;-72
2022/11/22 12:51:53;;;;;;;7.63;4.33;;;;;;;2.21;100.00;99537.98;1538650;93;21584;-72
2022/11/22 12:54:25;;;;;;;10.13;5.10;;;;;;;2.20;100.00;99544.78;1542521;93;21070;-71
2022/11/22 12:56:54;;;;;;;11.97;5.93;;;;;;;2.17;100.00;99537.86;1544234;93;21066;-73
2022/11/22 12:59:42;;;;;;;9.50;5.40;;;;;;;2.15;100.00;99544.31;1515735;95;21121;-74
2022/11/22 13:02:39;;;;;;;8.83;5.10;;;;;;;2.14;100.00;99557.28;1546253;93;21579;-74
2022/11/22 13:05:23;;;;;;;7.93;4.77;;;;;;;2.13;100.00;99551.61;1540902;93;21100;-73
2022/11/22 13:08:08;;;;;;;;;;;;;;;2.15;100.00;99550.98;1430883;100;21101;-72
2022/11/22 13:10:46;;;;;;;9.67;5.70;;;;;;;2.18;100.00;99542.70;1399412;98;20160;-72
2022/11/22 13:13:29;;;;;;;11.47;5.77;;;;;;;2.18;100.00;99546.23;1468336;98;21587;-72
2022/11/22 13:15:58;;;;;;;11.55;5.78;;;;;;;2.15;100.00;99545.65;1467192;98;21188;-71
2022/11/22 13:18:30;;;;;;;9.20;5.43;;;;;;;2.10;100.00;99540.69;1468349;98;21098;-71
2022/11/22 13:21:15;;;;;;;10.63;5.83;;;;;;;2.08;100.00;99544.81;1468283;98;21202;-71
2022/11/22 13:24:10;;;;;;;11.07;5.77;;;;;;;2.08;100.00;99564.81;1468684;98;22019;-73
2022/11/22 13:26:54;;;;;;;11.67;6.33;;;;;;;2.08;100.00;99560.81;1465732;98;21099;-71
2022/11/22 13:29:27;;;;;;;11.30;6.23;;;;;;;2.08;100.00;99559.48;1468782;98;21058;-71
2022/11/22 13:32:15;;;;;;;12.40;6.03;;;;;;;2.06;100.00;99569.44;1468536;95;21142;-70
2022/11/22 13:35:16;;;;;;;16.37;8.30;;;;;;;2.00;100.00;99566.43;1447750;98;21662;-74
2022/11/22 13:37:45;;;;;;;11.43;6.20;;;;;;;1.99;100.00;99568.75;1442301;98;21120;-73
2022/11/22 13:40:22;;;;;;;12.53;6.47;;;;;;;1.96;100.00;99569.00;1434074;99;21115;-73
2022/11/22 13:43:17;;;;;;;12.23;6.40;;;;;;;1.97;100.00;99573.38;1430501;100;21611;-76
2022/11/22 13:45:52;;;;;;;12.70;6.75;;;;;;;1.93;100.00;99564.78;1409871;102;21090;-74
2022/11/22 13:48:46;;;;;;;14.10;6.43;;;;;;;1.93;100.00;99558.13;1429198;100;21174;-70
2022/11/22 13:51:18;;;;;;;11.97;6.67;;;;;;;1.94;100.00;99564.29;1427651;100;21165;-68
2022/11/22 13:53:46;;;;;;;13.27;6.50;;;;;;;1.93;100.00;99582.58;1434046;99;21038;-70
2022/11/22 13:56:27;;;;;;;11.63;5.80;;;;;;;1.89;100.00;99589.52;1431618;100;21108;-69
2022/11/22 13:59:04;;;;;;;11.13;6.23;;;;;;;1.88;100.00;99586.48;1418608;100;21208;-70
2022/11/22 14:01:36;;;;;;;22.87;7.47;;;;;;;1.92;100.00;99586.23;1487145;91;21137;-70
2022/11/22 14:04:27;;;;;;;19.07;7.85;;;;;;;1.95;100.00;99592.62;1590531;88;21045;-69
2022/11/22 14:07:06;;;;;;;23.73;9.37;;;;;;;1.97;100.00;99592.88;1641374;85;21038;-68
2022/11/22 14:09:53;;;;;;;28.17;11.90;;;;;;;2.00;100.00;99589.09;1652414;87;21089;-71
2022/11/22 14:12:45;;;;;;;16.97;8.90;;;;;;;2.02;100.00;99587.14;1650822;87;21006;-70
2022/11/22 14:15:36;;;;;;;14.97;7.37;;;;;;;2.07;100.00;99595.61;1649952;87;21504;-72
2022/11/22 14:18:31;;;;;;;12.47;6.63;;;;;;;2.08;100.00;99597.32;1650304;87;21054;-72
2022/11/22 14:21:04;;;;;;;13.40;6.57;;;;;;;2.03;100.00;99597.69;1652673;87;21026;-73
2022/11/22 14:23:50;;;;;;;11.23;6.37;;;;;;;1.97;100.00;99588.87;1732676;82;21066;-72
2022/11/22 14:26:45;;;;;;;13.00;7.50;;;;;;;1.91;100.00;99590.70;1750791;82;20987;-76
2022/11/22 14:29:22;;;;;;;12.33;5.63;;;;;;;1.90;100.00;99595.70;1714608;84;21022;-76
2022/11/22 14:32:05;;;;;;;11.07;5.87;;;;;;;1.89;100.00;99601.52;1678822;85;21062;-75
2022/11/22 18:57:43;;;;;;;20.83;8.47;;;;;;;-0.35;100.00;99820.77;1744310;81;21669;-78
2022/11/22 19:00:13;;;;;;;26.50;9.67;;;;;;;-0.33;100.00;99826.36;1725477;82;20994;-77
2022/11/22 19:02:40;;;;;;;24.50;10.57;;;;;;;-0.33;100.00;99835.66;1725142;83;21488;-77
2022/11/22 19:05:07;;;;;;;23.40;9.77;;;;;;;-0.33;100.00;99844.96;1741224;81;21002;-77
2022/11/22 19:07:34;;;;;;;25.40;10.47;;;;;;;-0.31;100.00;99841.72;1725629;83;21524;-78
2022/11/22 19:10:05;;;;;;;21.90;10.23;;;;;;;-0.30;100.00;99845.21;1742553;81;21084;-76
2022/11/22 19:12:32;;;;;;;21.17;10.20;;;;;;;-0.27;100.00;99845.01;1732806;80;21073;-78
2022/11/22 19:15:00;;;;;;;22.50;9.90;;;;;;;-0.28;100.00;99845.50;1733697;80;21041;-76
2022/11/22 19:17:27;;;;;;;19.33;8.93;;;;;;;-0.26;100.00;99843.58;1748504;82;21061;-78
2022/11/22 19:19:57;;;;;;;23.60;10.77;;;;;;;-0.24;100.00;99844.80;1749894;81;21038;-77
2022/11/22 19:22:24;;;;;;;23.00;10.53;;;;;;;-0.24;100.00;99850.12;1747582;81;21090;-78
2022/11/22 19:24:52;;;;;;;21.60;9.47;;;;;;;-0.23;100.00;99846.48;1752894;80;21033;-78
2022/11/22 19:27:21;;;;;;;19.03;9.43;;;;;;;-0.21;100.00;99852.08;1748381;80;21144;-76
2022/11/22 19:29:48;;;;;;;22.77;10.03;;;;;;;-0.19;100.00;99855.97;1748058;81;21030;-76
2022/11/22 19:32:15;;;;;;;24.20;10.67;;;;;;;-0.21;100.00;99849.91;1748289;81;21072;-78
2022/11/22 19:34:42;;;;;;;25.37;8.47;;;;;;;-0.24;100.00;99855.43;1753207;81;21044;-80
2022/11/22 19:37:10;;;;;;;24.37;9.23;;;;;;;-0.24;100.00;99858.09;1756689;81;21103;-77
2022/11/22 19:39:37;;;;;;;20.70;9.30;;;;;;;-0.24;100.00;99855.43;1705370;83;21085;-78
2022/11/22 19:42:05;;;;;;;18.47;8.10;;;;;;;-0.21;100.00;99864.53;1753755;81;21056;-78
2022/11/22 19:44:32;;;;;;;25.00;9.10;;;;;;;-0.15;100.00;99865.91;1740699;81;21050;-77
2022/11/22 19:46:59;;;;;;;18.70;8.23;;;;;;;-0.12;100.00;99869.20;1725325;81;21041;-78
2022/11/22 19:49:26;;;;;;;19.83;8.87;;;;;;;-0.11;100.00;99873.54;1747167;81;20990;-78
2022/11/22 19:51:53;;;;;;;20.20;8.70;;;;;;;-0.11;100.00;99874.86;1750396;81;21033;-77
2022/11/22 19:54:20;;;;;;;23.93;9.90;;;;;;;-0.11;100.00;99874.02;1749310;82;21034;-77
2022/11/22 19:56:47;;;;;;;20.97;9.60;;;;;;;-0.16;100.00;99877.02;1748369;81;21500;-79
2022/11/22 19:59:15;;;;;;;17.30;7.57;;;;;;;-0.15;100.00;99883.17;1750915;81;20990;-77
2022/11/22 20:01:43;;;;;;;18.33;7.93;;;;;;;-0.13;100.00;99876.78;1749157;81;20998;-78
2022/11/22 20:04:11;;;;;;;20.33;8.37;;;;;;;-0.10;100.00;99881.89;1747477;81;20998;-77
2022/11/22 20:06:39;;;;;;;21.77;9.13;;;;;;;-0.11;100.00;99884.17;1761206;81;21002;-78
2022/11/22 20:09:11;;;;;;;22.53;9.43;;;;;;;-0.09;100.00;99887.59;1753772;81;21077;-79
2022/11/22 20:11:38;;;;;;;19.47;7.80;;;;;;;-0.06;100.00;99891.84;1750047;80;21020;-79
2022/11/22 20:14:05;;;;;;;20.50;9.50;;;;;;;-0.05;100.00;99882.92;1706178;83;21030;-78
2022/11/22 20:16:35;;;;;;;20.50;9.33;;;;;;;-0.05;100.00;99877.11;1711370;83;21078;-77
2022/11/22 20:19:05;;;;;;;20.03;8.97;;;;;;;-0.06;100.00;99880.72;1704114;83;21026;-78
2022/11/22 20:21:33;;;;;;;19.43;7.73;;;;;;;-0.06;100.00;99882.05;1746044;81;21074;-77
2022/11/22 20:24:00;;;;;;;20.90;9.10;;;;;;;-0.06;100.00;99883.86;1754722;81;21017;-78
2022/11/22 20:26:28;;;;;;;18.97;8.47;;;;;;;-0.06;100.00;99882.53;1728477;82;21046;-79
2022/11/22 20:28:58;;;;;;;16.20;6.83;;;;;;;-0.06;100.00;99889.17;1732880;82;21017;-77
2022/11/22 20:31:25;;;;;;;18.97;8.00;;;;;;;-0.05;100.00;99889.08;1738152;81;21057;-78
2022/11/22 20:33:53;;;;;;;19.00;8.17;;;;;;;-0.06;100.00;99897.15;1731955;81;21005;-78
2022/11/22 20:36:23;;;;;;;15.43;7.23;;;;;;;-0.06;100.00;99899.81;1733084;82;21065;-78
2022/11/22 20:38:51;;;;;;;17.07;7.40;;;;;;;-0.10;100.00;99899.17;1731632;81;21073;-77
2022/11/22 20:41:20;;;;;;;14.90;7.00;;;;;;;-0.11;100.00;99905.92;1728923;82;21159;-77
2022/11/22 20:43:48;;;;;;;17.30;7.17;;;;;;;-0.09;100.00;99910.64;1731888;81;21073;-79
2022/11/22 20:46:20;;;;;;;16.97;7.57;;;;;;;-0.09;100.00;99906.66;1733402;82;21041;-78
2022/11/22 20:48:48;;;;;;;16.27;7.55;;;;;;;-0.06;100.00;99911.28;1732537;81;21531;-79
2022/11/22 20:51:23;;;;;;;16.17;7.90;;;;;;;-0.09;100.00;99912.84;1727335;82;20986;-79
2022/11/22 20:53:50;;;;;;;15.67;7.13;;;;;;;-0.07;100.00;99920.69;1727979;82;21029;-77
2022/11/22 20:56:19;;;;;;;15.30;6.97;;;;;;;-0.06;100.00;99915.76;1728498;82;21077;-79
2022/11/22 20:58:47;;;;;;;17.97;8.17;;;;;;;-0.09;100.00;99905.33;1729649;81;21393;-77
2022/11/22 21:01:17;;;;;;;19.50;7.30;;;;;;;-0.14;100.00;99907.45;1727321;82;21061;-77
2022/11/22 21:03:44;;;;;;;17.03;7.27;;;;;;;-0.15;100.00;99909.27;1736430;81;21002;-78
2022/11/22 21:06:11;;;;;;;16.10;7.30;;;;;;;-0.15;100.00;99912.41;1726478;81;20993;-78
2022/11/22 21:08:39;;;;;;;18.33;7.47;;;;;;;-0.15;100.00;99917.73;1731016;81;21041;-77
2022/11/22 21:11:15;;;;;;;19.07;8.53;;;;;;;-0.13;100.00;99926.45;1729560;81;21498;-78
2022/11/22 21:13:43;;;;;;;20.90;8.40;;;;;;;-0.10;100.00;99928.90;1734173;82;21022;-78
2022/11/22 21:16:12;;;;;;;20.10;8.90;;;;;;;-0.10;100.00;99926.24;1724549;81;21014;-78
2022/11/22 21:18:39;;;;;;;22.40;8.70;;;;;;;-0.10;100.00;99933.73;1732453;82;21069;-77
2022/11/22 21:21:12;;;;;;;19.83;8.33;;;;;;;-0.09;100.00;99934.11;1722913;82;21042;-78